Time;durP1;ratioP1;P1;durP2;ratioP2;P2;SDS_P1;SDS_P2;PMS_P1;PMS_P2;Temp;Humidity;BMP_temperature;BMP_pressure;BME280_temperature;BME280_humidity;BME280_pressure;Samples;Min_cycle;Max_cycle;Signal;HPM_P1;HPM_P2
2022/06/03 00:00:57;;;;;;;1.35;1.25;;;;;;;20.29;49.77;100252.62;4380192;32;33762;-87
2022/06/03 00:03:34;;;;;;;1.70;1.60;;;;;;;20.28;49.90;100256.28;4380568;32;33555;-88
2022/06/03 00:06:24;;;;;;;1.75;1.65;;;;;;;20.36;49.92;100249.34;4372630;32;32758;-88
2022/06/03 00:09:19;;;;;;;4.07;1.50;;;;;;;20.38;49.96;100251.94;4358305;32;32099;-88
2022/06/03 00:12:15;;;;;;;2.22;1.48;;;;;;;20.19;50.35;100247.13;4369197;32;34651;-87
2022/06/03 00:15:19;;;;;;;4.03;1.50;;;;;;;19.99;50.75;100245.97;4382226;32;34294;-87
2022/06/03 00:17:54;;;;;;;1.65;1.37;;;;;;;20.15;49.70;100253.69;4348198;32;33916;-87
2022/06/03 00:20:35;;;;;;;1.40;1.30;;;;;;;20.17;48.53;100257.94;4383014;32;33717;-87
2022/06/03 00:23:09;;;;;;;1.67;1.08;;;;;;;20.20;48.53;100276.50;4368114;32;33846;-87
2022/06/03 00:25:52;;;;;;;3.03;1.75;;;;;;;20.08;49.07;100281.91;4381788;32;33384;-87
2022/06/03 00:28:52;;;;;;;7.25;1.40;;;;;;;20.18;48.32;100294.53;4383279;32;33538;-87
2022/06/03 00:31:20;;;;;;;1.40;1.30;;;;;;;20.25;47.78;100296.75;4352028;32;32432;-86
2022/06/03 00:34:10;;;;;;;1.30;1.20;;;;;;;20.12;48.19;100294.13;4370498;32;33283;-87
2022/06/03 00:36:52;;;;;;;2.10;1.40;;;;;;;19.53;49.82;100296.72;4383663;32;32656;-87
2022/06/03 00:39:29;;;;;;;1.50;1.40;;;;;;;19.38;50.18;100299.56;4369262;32;33033;-87
2022/06/03 00:42:15;;;;;;;3.85;1.40;;;;;;;19.22;50.40;100293.56;4367035;32;32339;-87
2022/06/03 00:45:01;;;;;;;1.37;1.25;;;;;;;19.45;50.14;100286.56;4382752;32;34120;-87
2022/06/03 00:47:48;;;;;;;2.83;1.62;;;;;;;19.60;49.71;100298.84;4367348;32;33205;-87
2022/06/03 00:50:33;;;;;;;4.37;0.90;;;;;;;19.62;49.38;100296.09;4382461;32;34039;-87
2022/06/03 00:53:37;;;;;;;1.52;1.42;;;;;;;19.63;49.80;100309.34;4379363;32;32097;-87
2022/06/03 00:56:42;;;;;;;1.90;1.37;;;;;;;19.66;49.62;100303.78;4383360;32;33071;-87
2022/06/03 00:59:29;;;;;;;3.37;1.80;;;;;;;19.62;49.63;100299.62;4381785;32;34442;-88
2022/06/03 01:02:03;;;;;;;2.90;1.20;;;;;;;19.49;50.37;100306.81;4385117;32;32501;-87
2022/06/03 01:04:41;;;;;;;1.35;1.23;;;;;;;19.46;50.54;100312.38;4364421;32;32346;-87
2022/06/03 01:07:21;;;;;;;1.25;1.15;;;;;;;19.39;50.70;100313.78;4370437;32;32227;-88
2022/06/03 01:10:20;;;;;;;1.80;1.40;;;;;;;19.28;50.86;100322.59;4371548;32;34699;-88
2022/06/03 01:13:16;;;;;;;2.85;1.52;;;;;;;19.12;51.94;100314.78;4368998;32;32293;-88
2022/06/03 01:16:06;;;;;;;1.90;1.37;;;;;;;19.22;51.78;100320.34;4373002;32;32582;-87
2022/06/03 01:18:50;;;;;;;1.60;1.50;;;;;;;19.18;51.60;100317.06;4382558;32;33833;-88
2022/06/03 01:21:33;;;;;;;1.70;1.60;;;;;;;19.25;51.41;100313.94;4371378;32;31709;-88
2022/06/03 01:24:16;;;;;;;1.87;1.75;;;;;;;19.05;51.77;100312.69;4372413;32;32587;-87
2022/06/03 01:26:59;;;;;;;1.92;1.60;;;;;;;19.12;51.53;100322.81;4386055;32;32915;-87
2022/06/03 01:29:38;;;;;;;1.65;1.55;;;;;;;19.07;51.71;100324.97;4388744;32;33617;-87
2022/06/03 01:32:28;;;;;;;1.45;1.35;;;;;;;19.06;51.90;100331.28;4384328;32;33779;-87
2022/06/03 01:35:31;;;;;;;3.72;1.33;;;;;;;18.88;52.52;100329.91;4369737;32;32291;-87
2022/06/03 01:38:26;;;;;;;2.08;1.50;;;;;;;18.99;52.30;100324.69;4365111;32;34286;-88
2022/06/03 01:41:10;;;;;;;1.62;1.50;;;;;;;18.98;52.57;100336.31;4374403;32;32585;-88
2022/06/03 01:44:04;;;;;;;1.70;1.60;;;;;;;18.86;53.04;100335.37;4359758;32;33239;-88
2022/06/03 01:46:35;;;;;;;6.93;1.90;;;;;;;18.87;53.43;100341.56;4380119;32;33576;-87
2022/06/03 01:49:31;;;;;;;1.55;1.35;;;;;;;18.89;53.11;100342.31;4370658;32;33498;-87
2022/06/03 01:52:27;;;;;;;2.35;1.30;;;;;;;18.93;53.13;100346.50;4384787;32;33628;-87
2022/06/03 01:55:36;;;;;;;1.37;1.27;;;;;;;18.98;53.25;100355.06;4384594;32;33305;-88
2022/06/03 01:59:08;;;;;;;2.17;1.65;;;;;;;19.06;52.47;100350.03;4384949;32;32480;-88
2022/06/03 02:02:24;;;;;;;1.52;1.33;;;;;;;18.73;52.91;100341.69;4313102;32;32730;-87
2022/06/03 02:05:24;;;;;;;3.22;1.30;;;;;;;18.84;52.60;100345.31;4314772;33;34826;-88
2022/06/03 02:08:04;;;;;;;1.30;1.08;;;;;;;18.91;52.83;100348.44;4370314;32;32500;-88
2022/06/03 02:11:17;;;;;;;2.08;1.65;;;;;;;18.91;53.40;100354.63;4380009;32;33151;-86
2022/06/03 02:14:28;;;;;;;1.55;1.30;;;;;;;18.88;53.02;100354.84;4377036;32;32690;-86
2022/06/03 02:17:10;;;;;;;4.95;2.28;;;;;;;18.75;54.03;100347.75;4384575;32;33368;-86
2022/06/03 02:19:41;;;;;;;2.10;1.40;;;;;;;18.94;52.84;100337.50;4371322;32;34000;-86
2022/06/03 02:22:23;;;;;;;1.40;1.30;;;;;;;18.98;52.38;100339.00;4383684;32;33302;-87
2022/06/03 02:25:08;;;;;;;2.78;2.12;;;;;;;19.05;52.37;100332.25;4371275;32;32743;-86
2022/06/03 02:27:41;;;;;;;1.25;1.15;;;;;;;18.97;52.46;100337.28;4382628;32;32563;-89
2022/06/03 02:30:25;;;;;;;3.17;1.37;;;;;;;18.95;52.41;100344.59;4358139;32;35313;-89
2022/06/03 02:33:05;;;;;;;2.33;1.62;;;;;;;18.96;52.37;100343.62;4385848;32;32668;-89
2022/06/03 02:35:46;;;;;;;1.70;1.60;;;;;;;18.93;52.45;100338.47;4372100;32;31900;-88
2022/06/03 02:38:35;;;;;;;1.75;1.65;;;;;;;18.97;52.56;100337.28;4383892;32;34711;-89
2022/06/03 02:41:12;;;;;;;1.77;1.67;;;;;;;19.00;52.22;100344.25;4383690;32;33237;-90
2022/06/03 02:44:09;;;;;;;8.80;2.90;;;;;;;18.74;53.19;100346.06;4383919;32;33763;-90
2022/06/03 02:46:45;;;;;;;1.55;1.45;;;;;;;18.55;54.03;100351.78;4372331;32;33120;-89
2022/06/03 02:49:44;;;;;;;2.25;1.40;;;;;;;18.53;54.42;100343.88;4373118;32;34002;-91
2022/06/03 02:52:28;;;;;;;2.83;1.90;;;;;;;18.65;54.01;100337.66;4383924;32;31629;-91
2022/06/03 02:55:34;;;;;;;1.70;1.55;;;;;;;18.59;54.43;100342.59;4372657;32;33222;-91
2022/06/03 02:58:24;;;;;;;1.30;1.20;;;;;;;18.62;54.67;100342.37;4362555;32;36157;-91
2022/06/03 03:01:09;;;;;;;2.12;1.95;;;;;;;18.41;55.27;100339.34;4382722;32;32450;-90
2022/06/03 03:04:11;;;;;;;2.20;1.70;;;;;;;18.45;54.99;100335.50;4383788;32;33256;-90
2022/06/03 03:07:03;;;;;;;1.70;1.60;;;;;;;18.21;55.83;100342.50;4372205;32;33240;-90
2022/06/03 03:10:29;;;;;;;2.28;2.05;;;;;;;18.25;55.97;100350.22;4374884;32;31472;-91
2022/06/03 03:13:16;;;;;;;1.98;1.80;;;;;;;18.30;55.98;100355.25;4386083;32;32510;-91
2022/06/03 03:15:55;;;;;;;3.08;2.42;;;;;;;18.28;56.19;100360.72;4372584;32;32262;-90
2022/06/03 03:19:07;;;;;;;2.00;1.80;;;;;;;18.31;56.12;100360.50;4351002;32;33068;-88
2022/06/03 03:21:41;;;;;;;1.70;1.60;;;;;;;18.33;56.04;100357.72;4384029;32;32179;-88
2022/06/03 03:24:30;;;;;;;2.37;2.10;;;;;;;18.34;56.05;100364.78;4384846;32;33132;-88
2022/06/03 03:27:14;;;;;;;3.10;1.62;;;;;;;18.06;56.96;100363.94;4383851;32;31807;-88
2022/06/03 03:29:47;;;;;;;4.97;2.10;;;;;;;18.07;56.81;100362.97;4382729;32;33239;-88
2022/06/03 03:32:33;;;;;;;;;;;;;;;18.05;57.24;100366.72;4382298;32;32206;-87
2022/06/03 03:35:09;;;;;;;3.53;2.17;;;;;;;18.21;56.48;100371.91;4384866;32;32725;-88
2022/06/03 03:37:55;;;;;;;5.28;1.55;;;;;;;18.28;56.54;100375.91;4371238;32;33402;-87
2022/06/03 03:40:42;;;;;;;4.32;2.10;;;;;;;18.32;56.94;100370.22;4381900;32;34407;-87
2022/06/03 03:43:26;;;;;;;4.57;2.33;;;;;;;18.43;56.89;100381.06;4382971;32;33418;-89
2022/06/03 03:45:57;;;;;;;3.58;1.98;;;;;;;18.73;55.63;100384.47;4382709;32;34272;-88
2022/06/03 03:48:43;;;;;;;2.22;1.95;;;;;;;18.88;55.47;100375.38;4380615;32;34541;-87
2022/06/03 03:51:37;;;;;;;2.83;2.25;;;;;;;19.08;54.22;100372.19;4393872;32;34141;-87
2022/06/03 03:54:41;;;;;;;2.47;2.00;;;;;;;18.88;56.23;100375.38;4388559;32;33820;-87
2022/06/03 03:57:18;;;;;;;2.22;2.00;;;;;;;19.18;55.39;100373.28;4384667;32;34855;-88
2022/06/03 04:00:18;;;;;;;6.53;1.80;;;;;;;19.45;54.26;100367.75;4384269;32;34400;-87
2022/06/03 04:02:58;;;;;;;4.95;2.30;;;;;;;19.61;53.63;100372.91;4382701;32;33308;-87
2022/06/03 04:06:19;;;;;;;6.15;2.20;;;;;;;19.80;54.16;100375.13;4381487;32;33412;-87
2022/06/03 04:09:10;;;;;;;3.92;2.03;;;;;;;20.06;53.21;100381.22;4363462;32;33474;-87
2022/06/03 04:12:03;;;;;;;2.80;2.45;;;;;;;19.87;54.97;100380.88;4380328;32;33315;-86
2022/06/03 04:14:53;;;;;;;2.70;1.98;;;;;;;20.38;51.93;100376.16;4383196;32;33701;-86
2022/06/03 04:17:39;;;;;;;2.47;1.85;;;;;;;20.43;51.19;100370.44;4373537;32;33128;-87
2022/06/03 04:20:20;;;;;;;2.60;1.83;;;;;;;20.36;52.75;100375.41;4382815;32;32682;-88
2022/06/03 04:23:14;;;;;;;4.32;2.47;;;;;;;20.74;50.22;100381.53;4370018;32;32714;-89
2022/06/03 04:26:27;;;;;;;3.75;1.83;;;;;;;20.77;49.86;100382.16;4382610;32;34243;-88
2022/06/03 04:29:06;;;;;;;;;;;;;;;20.62;50.70;100378.84;4364320;32;33081;-89
2022/06/03 04:31:57;;;;;;;2.10;1.90;;;;;;;21.07;49.45;100383.44;4383929;32;34320;-88
2022/06/03 04:35:10;;;;;;;2.60;2.12;;;;;;;20.93;51.04;100388.03;4379985;32;34094;-88
2022/06/03 04:37:54;;;;;;;2.62;1.80;;;;;;;20.66;51.95;100391.03;4381744;32;33910;-88
2022/06/03 04:40:47;;;;;;;2.12;1.85;;;;;;;20.90;51.00;100392.81;4358694;32;32600;-89
2022/06/03 04:44:01;;;;;;;3.33;2.25;;;;;;;21.10;50.68;100386.75;4383064;32;32367;-86
2022/06/03 04:47:19;;;;;;;7.37;2.45;;;;;;;21.12;52.03;100392.84;4378944;32;33233;-88
2022/06/03 04:50:09;;;;;;;6.15;2.12;;;;;;;21.16;51.39;100393.47;4381612;32;33549;-89
2022/06/03 04:53:10;;;;;;;6.47;2.67;;;;;;;21.32;51.10;100399.37;4384535;32;32185;-89
2022/06/03 04:55:48;;;;;;;3.22;2.30;;;;;;;21.48;52.19;100393.66;4383299;32;33986;-89
2022/06/03 04:58:59;;;;;;;6.18;2.92;;;;;;;21.43;51.61;100390.47;4381016;32;34693;-89
2022/06/03 05:01:42;;;;;;;5.05;2.47;;;;;;;21.67;52.31;100393.88;4371680;32;33919;-89
2022/06/03 05:04:36;;;;;;;5.18;2.60;;;;;;;21.95;51.57;100380.88;4383803;32;32215;-89
2022/06/03 05:07:24;;;;;;;7.07;2.70;;;;;;;22.28;50.35;100398.78;4385595;32;33624;-87
2022/06/03 05:10:27;;;;;;;4.43;2.47;;;;;;;22.28;48.97;100389.87;4373276;32;33117;-88
2022/06/03 05:13:18;;;;;;;3.97;2.30;;;;;;;22.27;47.79;100396.25;4375534;32;32883;-88
2022/06/03 05:16:13;;;;;;;2.92;2.17;;;;;;;22.66;47.48;100395.56;4384530;32;33396;-89
2022/06/03 05:19:30;;;;;;;4.35;2.58;;;;;;;22.86;46.84;100398.41;4384517;32;33877;-89
2022/06/03 05:22:14;;;;;;;3.12;1.77;;;;;;;23.17;46.16;100392.13;4369819;32;33954;-88
2022/06/03 05:24:48;;;;;;;3.17;2.30;;;;;;;23.34;45.72;100405.94;4384451;32;33632;-88
2022/06/03 05:27:32;;;;;;;2.87;1.83;;;;;;;23.46;46.12;100410.28;4371662;32;32363;-88
2022/06/03 05:30:18;;;;;;;4.50;2.33;;;;;;;23.54;46.22;100399.66;4384429;32;32188;-87
2022/06/03 05:33:05;;;;;;;2.60;2.37;;;;;;;23.50;45.30;100403.63;4372767;32;33638;-88
2022/06/03 05:35:52;;;;;;;3.58;2.20;;;;;;;23.71;44.94;100400.91;4381833;32;33943;-87
2022/06/03 05:38:36;;;;;;;3.15;2.75;;;;;;;23.87;44.41;100395.81;4372518;32;34003;-89
2022/06/03 05:42:23;;;;;;;2.85;2.10;;;;;;;23.73;43.19;100409.69;4369903;32;33863;-88
2022/06/03 05:44:25;;;;;;;5.60;2.20;;;;;;;23.70;42.14;100409.97;4372506;32;32737;-88
2022/06/03 05:47:13;;;;;;;2.97;2.50;;;;;;;24.03;41.75;100414.19;4369331;32;33243;-88
2022/06/03 05:49:46;;;;;;;2.22;1.90;;;;;;;24.15;41.02;100413.06;4382607;32;33053;-87
2022/06/03 05:52:29;;;;;;;3.75;2.28;;;;;;;24.33;39.11;100418.62;4370784;32;32790;-88
2022/06/03 05:55:19;;;;;;;2.60;1.85;;;;;;;24.19;40.14;100414.50;4375569;32;33317;-87
2022/06/03 05:58:36;;;;;;;2.85;1.77;;;;;;;24.78;38.22;100413.56;4370561;32;33007;-88
2022/06/03 06:01:22;;;;;;;2.37;2.15;;;;;;;24.56;40.28;100413.84;4339033;32;32048;-88
2022/06/03 06:03:56;;;;;;;2.33;1.80;;;;;;;24.65;38.50;100407.59;4381744;32;33777;-87
2022/06/03 06:06:42;;;;;;;4.20;2.10;;;;;;;24.86;39.09;100403.88;4370807;32;33438;-87
2022/06/03 06:09:53;;;;;;;3.97;2.12;;;;;;;24.42;37.44;100412.44;4382195;32;33814;-87
2022/06/03 06:12:30;;;;;;;3.67;2.60;;;;;;;24.43;36.91;100406.03;4334824;32;33523;-86
2022/06/03 06:15:23;;;;;;;3.33;2.22;;;;;;;24.48;37.25;100402.91;4378225;32;34070;-87
2022/06/03 06:17:55;;;;;;;2.37;1.80;;;;;;;24.39;37.70;100403.75;4371654;32;33060;-87
2022/06/03 06:20:36;;;;;;;1.85;1.75;;;;;;;24.63;37.30;100403.31;4370614;32;33601;-87
2022/06/03 06:23:16;;;;;;;3.60;2.25;;;;;;;24.66;37.11;100403.91;4380703;32;31285;-87
2022/06/03 06:26:12;;;;;;;1.87;1.75;;;;;;;24.92;36.78;100403.28;4382579;32;33685;-88
2022/06/03 06:28:52;;;;;;;6.90;2.03;;;;;;;25.27;35.39;100402.69;4385628;32;34230;-87
2022/06/03 06:31:27;;;;;;;3.80;1.92;;;;;;;25.53;35.10;100397.47;4375829;32;33896;-87
2022/06/03 06:34:14;;;;;;;2.40;1.65;;;;;;;24.99;35.91;100405.28;4374309;32;31765;-88
2022/06/03 06:37:12;;;;;;;4.10;2.10;;;;;;;24.68;36.87;100401.06;4375796;32;32275;-87
2022/06/03 06:40:08;;;;;;;2.25;2.00;;;;;;;24.51;37.13;100399.94;4383520;32;33467;-88
2022/06/03 06:43:01;;;;;;;2.00;1.87;;;;;;;24.98;38.02;100408.16;4371248;32;33323;-88
2022/06/03 06:45:39;;;;;;;7.62;1.90;;;;;;;25.13;36.97;100400.47;4387136;32;34072;-88
2022/06/03 06:48:09;;;;;;;5.87;2.58;;;;;;;25.43;36.99;100407.47;4374927;32;32625;-88
2022/06/03 06:50:51;;;;;;;4.72;2.40;;;;;;;25.38;36.06;100399.81;4386694;32;33615;-87
2022/06/03 06:53:35;;;;;;;4.93;2.28;;;;;;;25.23;36.75;100403.97;4386933;32;34580;-87
2022/06/03 06:56:12;;;;;;;6.57;2.70;;;;;;;25.32;36.94;100403.09;4385338;32;33323;-88
2022/06/03 06:58:46;;;;;;;3.37;1.70;;;;;;;25.06;38.52;100400.13;4383560;32;34762;-87
2022/06/03 07:01:20;;;;;;;7.20;2.65;;;;;;;25.19;38.00;100400.72;4362397;32;33836;-87
2022/06/03 07:04:03;;;;;;;6.78;1.90;;;;;;;25.24;36.99;100393.03;4373576;32;32274;-87
2022/06/03 07:06:54;;;;;;;4.45;2.33;;;;;;;25.33;37.63;100401.25;4386973;32;32751;-88
2022/06/03 07:09:31;;;;;;;3.87;2.45;;;;;;;25.64;37.25;100394.59;4378456;32;32876;-88
2022/06/03 07:12:13;;;;;;;5.60;2.33;;;;;;;25.90;36.86;100393.91;4386154;32;33719;-88
2022/06/03 07:14:55;;;;;;;3.12;2.75;;;;;;;26.24;36.93;100394.09;4386277;32;33837;-88
2022/06/03 07:21:03;;;;;;;3.83;2.70;;;;;;;25.73;36.60;100399.09;4387525;32;33548;-88
2022/06/03 07:23:39;;;;;;;4.10;2.37;;;;;;;26.17;36.47;100396.59;4385942;32;34471;-88
2022/06/03 07:26:27;;;;;;;7.45;1.87;;;;;;;26.33;36.30;100395.03;4387765;32;34378;-87
2022/06/03 07:29:01;;;;;;;6.68;2.33;;;;;;;26.33;36.39;100389.63;4383801;32;32732;-87
2022/06/03 07:31:33;;;;;;;2.70;2.45;;;;;;;26.62;35.75;100376.72;4362135;32;32752;-88
2022/06/03 07:34:25;;;;;;;2.35;2.15;;;;;;;26.50;36.82;100380.69;4371016;32;33576;-88
2022/06/03 07:36:54;;;;;;;;;;;;;;;26.45;35.55;100380.31;4374326;32;33803;-88
2022/06/03 07:39:36;;;;;;;6.10;1.92;;;;;;;26.86;34.67;100380.63;4383228;32;31475;-88
2022/06/03 07:42:13;;;;;;;2.15;1.90;;;;;;;27.03;35.37;100374.34;4370287;32;33150;-88
2022/06/03 07:44:57;;;;;;;5.50;1.95;;;;;;;27.30;33.30;100373.34;4360387;32;33105;-87
2022/06/03 07:47:29;;;;;;;2.37;2.08;;;;;;;27.02;33.11;100381.62;4372622;32;33248;-88
2022/06/03 07:50:02;;;;;;;4.90;2.75;;;;;;;27.30;32.56;100376.06;4385424;32;33228;-88
2022/06/03 07:52:50;;;;;;;3.50;2.00;;;;;;;27.19;33.31;100373.59;4372339;32;32870;-87
2022/06/03 07:55:25;;;;;;;2.15;1.73;;;;;;;26.84;34.20;100374.53;4365934;32;32965;-87
2022/06/03 07:58:03;;;;;;;7.00;1.85;;;;;;;27.08;33.43;100373.84;4384882;32;33251;-88
2022/06/03 08:00:40;;;;;;;2.15;1.40;;;;;;;27.36;33.72;100375.41;4381488;32;33386;-87
2022/06/03 08:03:21;;;;;;;1.87;1.50;;;;;;;27.78;31.42;100366.47;4382393;32;34409;-88
2022/06/03 08:05:58;;;;;;;3.67;2.00;;;;;;;27.60;32.17;100368.41;4383555;32;33198;-88
2022/06/03 08:11:18;;;;;;;4.03;1.77;;;;;;;27.05;32.38;100359.59;4385434;32;30946;-88
2022/06/03 08:13:53;;;;;;;3.35;1.77;;;;;;;27.58;32.51;100360.41;4382668;32;33358;-87
2022/06/03 08:16:38;;;;;;;5.60;1.90;;;;;;;27.22;32.22;100355.16;4383839;32;33138;-87
2022/06/03 08:19:11;;;;;;;2.20;2.03;;;;;;;27.80;32.24;100359.00;4369191;32;34010;-88
2022/06/03 08:21:46;;;;;;;3.28;1.67;;;;;;;28.10;32.00;100365.69;4376187;32;32174;-88
2022/06/03 08:24:16;;;;;;;2.65;2.05;;;;;;;28.06;31.11;100364.34;4368911;32;33962;-87
2022/06/03 08:26:48;;;;;;;1.50;1.40;;;;;;;28.37;30.27;100361.03;4384532;32;34469;-88
2022/06/03 08:29:33;;;;;;;6.32;2.12;;;;;;;28.18;30.40;100351.28;4373118;32;32532;-87
2022/06/03 08:32:06;;;;;;;1.48;1.37;;;;;;;28.37;31.67;100358.31;4367081;32;32339;-88
2022/06/03 08:34:38;;;;;;;1.60;1.40;;;;;;;27.92;30.28;100357.69;4381800;32;33230;-88
2022/06/03 08:37:09;;;;;;;1.83;1.58;;;;;;;28.04;31.94;100358.22;4371829;32;33968;-88
2022/06/03 08:39:39;;;;;;;2.10;1.90;;;;;;;28.40;30.36;100349.81;4363512;32;33662;-88
2022/06/03 08:42:21;;;;;;;1.42;1.33;;;;;;;28.68;30.18;100348.47;4373294;32;31205;-88
2022/06/03 08:45:11;;;;;;;2.10;1.35;;;;;;;28.23;32.37;100351.63;4384581;32;33195;-88
2022/06/03 08:47:54;;;;;;;1.80;1.67;;;;;;;28.59;30.21;100349.50;4373122;32;33128;-88
2022/06/03 08:51:06;;;;;;;8.05;2.17;;;;;;;28.86;29.75;100348.25;4383266;32;33485;-88
2022/06/03 08:53:45;;;;;;;1.77;1.67;;;;;;;29.40;29.39;100343.06;4328567;33;31794;-88
2022/06/03 08:56:20;;;;;;;4.03;1.87;;;;;;;29.31;29.06;100344.97;4318114;33;33861;-88
2022/06/03 09:01:38;;;;;;;1.67;1.58;;;;;;;29.62;28.48;100341.47;4382852;32;33872;-88
2022/06/03 09:04:19;;;;;;;4.45;1.90;;;;;;;29.37;27.79;100348.84;4370694;32;33472;-88
2022/06/03 09:07:00;;;;;;;1.98;1.60;;;;;;;29.51;30.09;100350.00;4381629;32;34359;-88
2022/06/03 09:09:47;;;;;;;3.95;2.17;;;;;;;29.43;29.37;100345.41;4379962;32;33334;-88
2022/06/03 09:12:23;;;;;;;6.12;1.70;;;;;;;29.55;29.86;100349.50;4356516;32;34167;-88
2022/06/03 09:14:56;;;;;;;1.70;1.60;;;;;;;29.56;30.06;100347.62;4382559;32;33437;-88
2022/06/03 09:17:25;;;;;;;3.75;1.60;;;;;;;29.68;29.03;100338.06;4381135;32;32693;-88
2022/06/03 09:19:56;;;;;;;2.03;1.50;;;;;;;29.86;30.14;100335.03;4386237;32;33942;-87
2022/06/03 09:22:28;;;;;;;3.20;2.30;;;;;;;30.32;30.98;100332.37;4380840;32;34148;-88
2022/06/03 09:24:58;;;;;;;2.00;1.58;;;;;;;30.19;29.16;100338.44;4356100;32;32069;-88
2022/06/03 09:27:29;;;;;;;3.03;1.80;;;;;;;30.19;27.71;100335.72;4381196;32;33018;-87
2022/06/03 09:29:59;;;;;;;3.20;1.87;;;;;;;29.93;28.90;100332.47;4368329;32;33724;-88
2022/06/03 09:32:28;;;;;;;2.25;2.05;;;;;;;29.83;29.38;100332.69;4369017;32;34366;-87
2022/06/03 09:35:02;;;;;;;1.83;1.73;;;;;;;29.90;29.17;100333.66;4354840;32;33117;-88
2022/06/03 09:37:35;;;;;;;1.77;1.67;;;;;;;29.41;28.99;100333.88;4364077;32;33009;-88
2022/06/03 09:40:10;;;;;;;3.08;1.50;;;;;;;30.01;29.79;100335.16;4352253;32;33355;-88
2022/06/03 09:42:54;;;;;;;4.97;1.77;;;;;;;29.90;29.18;100346.44;4365278;32;33120;-88
2022/06/03 09:45:26;;;;;;;3.87;1.70;;;;;;;30.19;28.36;100356.66;4358425;32;32981;-88
2022/06/03 09:47:56;;;;;;;3.72;2.30;;;;;;;30.34;29.95;100347.53;4364951;32;33529;-88
2022/06/03 09:50:25;;;;;;;3.58;2.20;;;;;;;30.80;28.45;100358.41;4374154;32;34304;-88
2022/06/03 09:53:03;;;;;;;1.75;1.65;;;;;;;30.97;27.68;100347.34;4372888;32;32139;-87
2022/06/03 09:55:36;;;;;;;2.05;1.80;;;;;;;31.14;26.87;100348.84;4366371;32;33051;-87
2022/06/03 09:58:06;;;;;;;1.75;1.65;;;;;;;30.40;29.47;100366.91;4365601;32;33093;-87
2022/06/03 10:00:56;;;;;;;2.12;1.75;;;;;;;30.54;29.93;100358.78;4365685;32;32658;-87
2022/06/03 10:03:28;;;;;;;2.60;1.53;;;;;;;31.02;27.02;100344.91;4360830;32;33161;-87
2022/06/03 10:05:59;;;;;;;2.30;2.10;;;;;;;31.13;28.62;100347.16;4377245;32;33368;-87
2022/06/03 10:12:48;;;;;;;2.07;1.63;;;;;;;30.91;27.63;100348.06;4365849;32;32496;-87
2022/06/03 10:14:07;;;;;;;7.85;2.10;;;;;;;31.26;29.42;100341.06;4377875;32;33052;-88
2022/06/03 10:16:36;;;;;;;3.22;2.45;;;;;;;31.39;29.80;100346.75;4365520;32;34121;-88
2022/06/03 10:19:04;;;;;;;3.95;1.83;;;;;;;31.15;29.98;100339.66;4365301;32;32850;-88
2022/06/03 10:21:33;;;;;;;8.75;2.17;;;;;;;31.66;27.28;100342.44;4365618;32;33679;-87
2022/06/03 10:24:05;;;;;;;2.20;1.83;;;;;;;31.79;26.62;100342.63;4365557;32;34546;-88
2022/06/03 10:26:52;;;;;;;2.72;1.92;;;;;;;31.18;30.06;100331.06;4366010;32;34036;-89
2022/06/03 10:29:23;;;;;;;4.12;1.95;;;;;;;30.88;27.72;100343.00;4366072;32;33475;-87
2022/06/03 10:31:53;;;;;;;3.45;1.73;;;;;;;31.09;28.93;100329.47;4377704;32;34004;-87
2022/06/03 10:34:38;;;;;;;1.92;1.67;;;;;;;31.48;27.96;100329.22;4378334;32;34048;-88
2022/06/03 10:37:13;;;;;;;2.80;1.90;;;;;;;31.00;29.32;100331.47;4392602;32;33422;-88
2022/06/03 10:39:43;;;;;;;5.30;1.55;;;;;;;31.82;28.14;100325.06;4392332;32;32667;-87
2022/06/03 10:42:19;;;;;;;2.12;1.50;;;;;;;32.19;26.96;100318.53;4392620;32;32982;-89
2022/06/03 10:44:50;;;;;;;1.37;1.27;;;;;;;32.22;26.72;100311.81;4389071;32;33644;-91
2022/06/03 10:47:39;;;;;;;1.90;1.70;;;;;;;32.70;26.45;100312.03;4369499;32;32401;-87
2022/06/03 10:50:29;;;;;;;1.75;1.65;;;;;;;32.89;30.81;100317.66;4392722;32;33610;-87
2022/06/03 11:02:15;;;;;;;1.73;1.45;;;;;;;32.13;25.23;100286.50;4347253;32;33467;-87
2022/06/03 11:04:44;;;;;;;1.58;1.10;;;;;;;32.19;25.15;100299.41;4380127;32;34540;-88
2022/06/03 11:07:25;;;;;;;2.70;1.65;;;;;;;32.02;25.49;100293.34;4367803;32;33704;-87
2022/06/03 11:10:03;;;;;;;2.75;1.73;;;;;;;31.82;26.23;100295.00;4379812;32;31995;-87
2022/06/03 11:12:59;;;;;;;1.80;1.42;;;;;;;32.09;28.68;100298.84;4382502;32;33634;-87
2022/06/03 11:15:35;;;;;;;2.50;1.67;;;;;;;32.47;25.28;100296.72;4380230;32;34155;-88
2022/06/03 11:18:27;;;;;;;3.45;1.85;;;;;;;32.54;24.97;100286.69;4380406;32;33621;-87
2022/06/03 11:21:16;;;;;;;2.10;1.50;;;;;;;32.53;26.75;100284.16;4365363;32;32007;-87
2022/06/03 11:23:47;;;;;;;1.95;1.58;;;;;;;32.34;25.94;100275.56;4379487;32;33759;-89
2022/06/03 11:26:19;;;;;;;1.20;1.10;;;;;;;32.34;25.30;100269.25;4371207;32;34077;-88
2022/06/03 11:28:52;;;;;;;2.75;1.10;;;;;;;32.48;27.66;100265.62;4382622;32;33851;-88
2022/06/03 11:31:28;;;;;;;1.85;1.35;;;;;;;32.52;26.96;100272.38;4373109;32;31996;-88
2022/06/03 11:34:04;;;;;;;1.10;1.00;;;;;;;32.63;24.72;100255.44;4384368;32;34640;-88
2022/06/03 11:36:56;;;;;;;1.87;1.73;;;;;;;33.05;24.94;100256.34;4383045;32;33829;-89
2022/06/03 11:39:35;;;;;;;4.97;1.50;;;;;;;33.09;24.25;100262.25;4371834;32;33143;-88
2022/06/03 11:42:09;;;;;;;3.58;1.60;;;;;;;32.71;27.02;100259.91;4372097;32;34221;-89
2022/06/03 11:44:49;;;;;;;4.10;1.33;;;;;;;33.32;24.34;100251.00;4369467;32;33177;-89
2022/06/03 11:47:24;;;;;;;1.83;1.27;;;;;;;33.06;24.71;100243.50;4368415;32;31701;-89
2022/06/03 11:49:54;;;;;;;3.00;1.40;;;;;;;32.94;24.17;100234.19;4370137;32;33153;-88
2022/06/03 11:52:26;;;;;;;1.55;1.45;;;;;;;32.84;26.22;100231.78;4372755;32;33636;-88
2022/06/03 11:54:55;;;;;;;5.75;1.33;;;;;;;32.66;26.19;100235.03;4371578;32;33348;-90
2022/06/03 11:57:24;;;;;;;1.40;1.10;;;;;;;32.47;24.79;100231.09;4373008;32;34186;-90
2022/06/03 12:00:04;;;;;;;2.92;1.10;;;;;;;32.54;24.37;100231.19;4360382;32;32868;-90
2022/06/03 12:03:35;;;;;;;1.98;1.48;;;;;;;32.98;24.83;100219.06;4370791;32;33043;-89
2022/06/03 12:06:21;;;;;;;3.50;1.50;;;;;;;32.74;26.45;100223.94;4374317;32;34597;-90
2022/06/03 12:09:34;;;;;;;5.50;1.50;;;;;;;33.01;24.77;100219.50;4381643;32;33693;-90
2022/06/03 12:15:45;;;;;;;1.77;1.25;;;;;;;33.46;24.23;100208.97;4382353;32;33383;-89
2022/06/03 12:18:37;;;;;;;1.98;1.35;;;;;;;33.57;25.27;100204.78;4332565;32;32944;-89
2022/06/03 12:21:30;;;;;;;6.15;2.33;;;;;;;33.75;25.35;100196.81;4368687;32;34117;-89
2022/06/03 12:24:26;;;;;;;1.80;1.58;;;;;;;34.03;26.12;100198.56;4372254;32;33921;-86
2022/06/03 12:27:01;;;;;;;1.62;1.52;;;;;;;33.66;24.36;100191.72;4379889;32;34071;-88
2022/06/03 12:32:23;;;;;;;2.72;1.10;;;;;;;33.48;23.16;100175.94;4376425;32;34507;-88
2022/06/03 12:35:44;;;;;;;1.42;1.33;;;;;;;33.10;25.93;100181.88;4373488;32;32805;-88
2022/06/03 12:38:19;;;;;;;3.87;1.35;;;;;;;33.29;26.05;100183.84;4379237;32;34093;-87
2022/06/03 12:40:52;;;;;;;1.10;0.95;;;;;;;33.04;25.32;100182.66;4391209;32;33611;-89
2022/06/03 12:43:29;;;;;;;1.25;1.10;;;;;;;32.85;24.88;100176.91;4391357;32;33814;-87
2022/06/03 12:46:07;;;;;;;1.80;1.40;;;;;;;33.06;25.47;100175.13;4391291;32;34143;-88
2022/06/03 12:48:52;;;;;;;2.87;1.40;;;;;;;32.72;25.10;100176.81;4378779;32;33404;-88
2022/06/03 12:51:29;;;;;;;3.95;1.25;;;;;;;33.24;24.08;100171.81;4391195;32;34551;-88
2022/06/03 12:54:06;;;;;;;1.50;1.12;;;;;;;33.51;23.96;100151.69;4391022;32;34744;-88
2022/06/03 12:56:55;;;;;;;3.78;1.05;;;;;;;33.42;23.55;100157.53;4378641;32;32657;-87
2022/06/03 12:59:30;;;;;;;2.28;1.17;;;;;;;33.00;23.30;100159.53;4380552;32;33088;-88
2022/06/03 13:02:02;;;;;;;1.33;1.10;;;;;;;33.19;25.63;100164.22;4390992;32;34423;-88
2022/06/03 13:05:07;;;;;;;1.80;1.30;;;;;;;33.26;23.06;100161.50;4378589;32;33183;-88
2022/06/03 13:08:05;;;;;;;1.40;1.30;;;;;;;33.60;22.19;100160.56;4385928;32;32402;-88
2022/06/03 13:10:53;;;;;;;1.58;1.25;;;;;;;33.62;21.87;100144.78;4367287;32;32522;-87
2022/06/03 13:13:30;;;;;;;2.97;1.10;;;;;;;34.47;21.41;100131.28;4375047;32;33119;-88